Henderson, NV (89044)

2:46 AM PST on February 10, 2016 (GMT -0800)
APRSWXNET | | Change Station
CLOSE
Current Station
Personal Weather Station
Location: Henderson, NV
Elevation: 2402 ft
Nearby Weather Stations

Elev 2402 ft 35.99 °N, 115.12 °W | Updated 19 minutes ago

Clear
Clear
47 °F
Feels Like 47 °F
N
0
Wind Variable Wind from SE
Gusts 1.0 mph

Today
High -- | Low -- °F
--% Chance of Precip.
Yesterday
High -- | Low -- °F
Precip. -- in
Pressure 30.29 in
Visibility 10.0 miles
Clouds Clear
Windchill 47 °F
Dew Point 28 °F
Humidity 47%
Rainfall in
Snow Depth Not available.
6:33 AM 5:16 PM
Waxing Crescent, 5% visible
METAR KHND 100956Z 18005KT 10SM CLR 08/M02 A3029 RMK AO2 SLP255 T00781022
Pressure 30.29 in
Visibility 10.0 miles
Clouds Clear
Windchill 47 °F
Dew Point 28 °F
Humidity 47%
Rainfall in
Snow Depth Not available.
6:33 AM 5:16 PM
Waxing Crescent, 5% visible
METAR KHND 100956Z 18005KT 10SM CLR 08/M02 A3029 RMK AO2 SLP255 T00781022

10-Day Weather Forecast

Almanac

Astronomy

Feb. 10, 2016 Rise Set
Actual Time
Civil Twilight
Nautical Twilight
Astronomical Twilight
Moon
Length of Visible Light
Length of Day
Tomorrow will be .
, % of the Moon is Illuminated

Today's Extremes

State Highs State Lows

Community

WunderPhotos

Upload Photos

1,891,830 photos uploaded!

WunderBlog® & News

Nearby

Air Quality

  Air Quality AQ Index Pollutant
Not available.

Snow Depth

Station Depth Elevation

Earthquake Activity

City Distance Mag. Time & Date
Minimum magnitude displayed is 2.5.

Coastal Water Temperatures

Place Temperature

Stations

Nearby Weather Stations

Station Location Temp. Windchill Dew Point Humidity Wind Precip. Elev Updated Type
                   

Watches & Warnings

There are currently no watches in effect.